Time;durP1;ratioP1;P1;durP2;ratioP2;P2;SDS_P1;SDS_P2;PMS_P1;PMS_P2;Temp;Humidity;BMP_temperature;BMP_pressure;BME280_temperature;BME280_humidity;BME280_pressure;Samples;Min_cycle;Max_cycle;Signal;HPM_P1;HPM_P2
2022/05/16 00:02:19;;;;;;;7.43;0.50;;;18.20;74.50;;;;;;5055239;28;20099;-74
2022/05/16 00:04:49;;;;;;;4.78;0.40;;;18.20;74.60;;;;;;5055760;28;20025;-74
2022/05/16 00:07:15;;;;;;;3.40;0.10;;;18.10;75.00;;;;;;5055191;28;20017;-73
2022/05/16 00:09:41;;;;;;;2.20;0.38;;;18.00;76.40;;;;;;5055213;28;20029;-73
2022/05/16 00:12:08;;;;;;;3.70;0.13;;;18.00;76.70;;;;;;5056615;28;20036;-73
2022/05/16 00:14:34;;;;;;;3.83;0.40;;;17.90;77.80;;;;;;5055159;28;20029;-73
2022/05/16 00:17:00;;;;;;;7.53;0.32;;;17.90;79.50;;;;;;5055637;28;20411;-73
2022/05/16 00:19:26;;;;;;;6.63;0.65;;;17.80;80.30;;;;;;5055723;28;20028;-73
2022/05/16 00:21:51;;;;;;;2.72;0.35;;;17.80;81.60;;;;;;5053921;28;20493;-73
2022/05/16 00:24:20;;;;;;;6.68;0.93;;;17.70;82.30;;;;;;5054256;28;20056;-73
2022/05/16 00:26:45;;;;;;;4.78;0.90;;;17.70;83.30;;;;;;5055067;28;20135;-73
2022/05/16 00:29:11;;;;;;;4.88;0.30;;;17.60;84.40;;;;;;5053528;28;20407;-73
2022/05/16 00:31:36;;;;;;;6.18;0.22;;;17.70;86.40;;;;;;5053730;28;20025;-73
2022/05/16 00:34:02;;;;;;;2.80;0.20;;;17.60;86.90;;;;;;5053566;28;20024;-73
2022/05/16 00:36:28;;;;;;;4.40;0.17;;;17.60;87.60;;;;;;5053584;28;20032;-73
2022/05/16 00:38:54;;;;;;;4.85;0.73;;;17.60;88.50;;;;;;5054876;28;20063;-73
2022/05/16 00:41:20;;;;;;;2.88;0.25;;;17.50;89.40;;;;;;5054761;28;20092;-73
2022/05/16 00:43:52;;;;;;;1.80;0.10;;;17.50;89.70;;;;;;5053179;28;20021;-73
2022/05/16 00:46:19;;;;;;;6.30;0.63;;;17.50;90.40;;;;;;5054546;28;20029;-73
2022/05/16 00:48:46;;;;;;;5.25;0.80;;;17.50;90.70;;;;;;5054437;28;20036;-73
2022/05/16 00:51:18;;;;;;;3.60;0.43;;;17.50;91.10;;;;;;5054790;28;20025;-73
2022/05/16 00:53:44;;;;;;;2.67;0.32;;;17.40;91.80;;;;;;5054526;28;20029;-73
2022/05/16 00:56:11;;;;;;;4.97;0.40;;;17.40;91.80;;;;;;5054592;28;20040;-72
2022/05/16 00:58:39;;;;;;;5.90;0.57;;;17.40;92.00;;;;;;5054804;28;20387;-72
2022/05/16 01:04:47;;;;;;;5.47;0.35;;;17.40;92.40;;;;;;5054410;28;20017;-73
2022/05/16 01:06:38;;;;;;;6.50;0.55;;;17.30;93.00;;;;;;5054178;28;20037;-73
2022/05/16 01:09:04;;;;;;;6.18;0.63;;;17.30;93.40;;;;;;5054102;28;20480;-74
2022/05/16 01:11:29;;;;;;;3.90;0.40;;;17.20;93.60;;;;;;5054548;28;20025;-73
2022/05/16 01:13:55;;;;;;;5.13;0.20;;;17.20;94.30;;;;;;5053982;28;20029;-74
2022/05/16 01:16:22;;;;;;;8.57;0.95;;;17.20;94.20;;;;;;5054212;28;20092;-73
2022/05/16 01:18:48;;;;;;;5.38;0.82;;;17.20;94.70;;;;;;5053893;28;20480;-73
2022/05/16 01:21:30;;;;;;;3.58;0.68;;;17.10;95.10;;;;;;5054103;28;20017;-73
2022/05/16 01:24:03;;;;;;;7.95;0.68;;;17.10;95.40;;;;;;5052691;28;20025;-73
2022/05/16 01:26:33;;;;;;;2.97;0.70;;;17.10;95.70;;;;;;5054414;28;20032;-73
2022/05/16 01:28:59;;;;;;;4.53;0.70;;;17.10;95.90;;;;;;5054047;28;20098;-73
2022/05/16 01:31:25;;;;;;;6.15;0.35;;;17.00;96.10;;;;;;5053972;28;20051;-73
2022/05/16 01:33:51;;;;;;;5.53;0.45;;;17.00;96.60;;;;;;5053969;28;20033;-73
2022/05/16 01:36:16;;;;;;;5.82;0.73;;;17.00;97.20;;;;;;5052388;28;20021;-73
2022/05/16 01:38:42;;;;;;;5.68;0.38;;;17.00;96.80;;;;;;5053419;28;20098;-73
2022/05/16 01:41:11;;;;;;;5.85;0.65;;;17.00;97.00;;;;;;5052431;28;20017;-73
2022/05/16 01:43:40;;;;;;;4.53;0.30;;;17.00;97.20;;;;;;5052363;28;20021;-73
2022/05/16 01:46:08;;;;;;;5.00;0.28;;;17.00;97.30;;;;;;5053351;28;20031;-73
2022/05/16 01:48:34;;;;;;;7.38;0.32;;;17.00;97.20;;;;;;5053565;28;20033;-73
2022/05/16 01:51:05;;;;;;;6.28;0.45;;;17.10;97.10;;;;;;5053669;28;20055;-73
2022/05/16 01:53:32;;;;;;;8.93;0.70;;;17.00;97.30;;;;;;5052060;28;20503;-73
2022/05/16 01:55:58;;;;;;;7.30;0.85;;;17.00;97.50;;;;;;5053467;28;20383;-73
2022/05/16 01:58:24;;;;;;;7.00;0.30;;;17.00;97.40;;;;;;5053277;28;20017;-73
2022/05/16 02:00:50;;;;;;;6.05;0.88;;;16.90;97.50;;;;;;5053287;28;20075;-73
2022/05/16 02:03:16;;;;;;;4.97;0.32;;;16.90;97.90;;;;;;5051859;28;20032;-73
2022/05/16 02:05:43;;;;;;;5.57;0.55;;;16.80;98.30;;;;;;5051935;28;20023;-73
2022/05/16 02:08:09;;;;;;;6.47;1.10;;;16.80;98.50;;;;;;5051917;28;20541;-73
2022/05/16 02:10:37;;;;;;;4.13;0.10;;;16.80;98.70;;;;;;5053636;28;20029;-73
2022/05/16 02:13:04;;;;;;;6.28;0.65;;;16.80;98.70;;;;;;5053383;28;20424;-73
2022/05/16 02:15:32;;;;;;;7.30;0.55;;;16.80;98.80;;;;;;5052919;28;20025;-73
2022/05/16 02:17:58;;;;;;;2.17;0.30;;;16.70;99.10;;;;;;5053191;28;20383;-73
2022/05/16 02:20:25;;;;;;;4.88;0.75;;;16.60;99.10;;;;;;5051842;28;20518;-72
2022/05/16 02:25:37;;;;;;;3.97;0.60;;;16.70;99.60;;;;;;5053812;28;20091;-72
2022/05/16 02:28:11;;;;;;;4.43;0.65;;;16.60;99.90;;;;;;5053082;28;20566;-73
2022/05/16 02:30:38;;;;;;;4.25;0.55;;;16.60;99.90;;;;;;5053165;28;20104;-75
2022/05/16 02:33:04;;;;;;;4.43;0.40;;;16.60;99.90;;;;;;5053065;28;20053;-74
2022/05/16 02:35:31;;;;;;;5.78;0.70;;;16.50;99.90;;;;;;5052789;28;20025;-73
2022/05/16 02:37:59;;;;;;;5.90;0.82;;;16.40;99.90;;;;;;5053225;28;20040;-73
2022/05/16 02:40:29;;;;;;;;;;;16.40;99.90;;;;;;5053331;28;20022;-73
2022/05/16 02:42:55;;;;;;;5.35;0.45;;;16.30;99.90;;;;;;5052632;28;19944;-73
2022/05/16 02:45:21;;;;;;;6.40;1.20;;;16.30;99.90;;;;;;5052841;28;20020;-74
2022/05/16 02:47:47;;;;;;;8.20;0.52;;;16.30;99.90;;;;;;5055776;28;20024;-73
2022/05/16 02:50:13;;;;;;;3.90;0.20;;;16.20;99.90;;;;;;5057001;28;20017;-73
2022/05/16 02:52:39;;;;;;;3.33;0.82;;;16.20;99.90;;;;;;5056714;28;20543;-74
2022/05/16 02:55:05;;;;;;;4.60;0.55;;;16.10;99.90;;;;;;5056658;28;20025;-73
2022/05/16 02:57:31;;;;;;;4.85;0.63;;;16.10;99.90;;;;;;5056541;28;20135;-74
2022/05/16 02:59:57;;;;;;;5.20;0.28;;;16.00;99.90;;;;;;5055177;28;20049;-74
2022/05/16 03:02:23;;;;;;;2.20;0.45;;;16.00;99.90;;;;;;5056501;28;20017;-74
2022/05/16 03:04:49;;;;;;;1.27;0.30;;;15.90;99.90;;;;;;5056410;28;20513;-74
2022/05/16 03:07:15;;;;;;;3.00;0.50;;;15.90;99.90;;;;;;5056791;28;20025;-73
2022/05/16 03:09:41;;;;;;;3.85;0.47;;;15.90;99.90;;;;;;5056430;28;20029;-74
2022/05/16 03:12:07;;;;;;;4.63;0.60;;;15.80;99.90;;;;;;5054932;28;20036;-74
2022/05/16 03:14:35;;;;;;;2.83;0.30;;;15.80;99.90;;;;;;5055290;28;20025;-74
2022/05/16 03:17:02;;;;;;;7.72;0.90;;;15.70;99.90;;;;;;5056273;28;20062;-74
2022/05/16 03:19:27;;;;;;;8.45;0.73;;;15.60;99.90;;;;;;5056288;28;20021;-74
2022/05/16 03:21:53;;;;;;;4.00;0.30;;;15.60;99.90;;;;;;5056489;28;20017;-74
2022/05/16 03:24:18;;;;;;;3.33;0.60;;;15.60;99.90;;;;;;5056221;28;20067;-74
2022/05/16 03:26:44;;;;;;;4.72;1.05;;;15.60;99.90;;;;;;5056239;28;20112;-73
2022/05/16 03:29:11;;;;;;;3.05;0.22;;;15.50;99.90;;;;;;5056119;28;20037;-73
2022/05/16 03:31:37;;;;;;;5.10;0.70;;;15.50;99.90;;;;;;5054618;28;20435;-73
2022/05/16 03:34:03;;;;;;;6.50;0.55;;;15.40;99.90;;;;;;5056281;28;20029;-73
2022/05/16 03:36:29;;;;;;;4.07;0.88;;;15.40;99.90;;;;;;5056106;28;20082;-73
2022/05/16 03:41:39;;;;;;;5.25;0.70;;;15.30;99.90;;;;;;5056296;28;20086;-73
2022/05/16 03:44:05;;;;;;;8.00;0.68;;;15.30;99.90;;;;;;5056827;28;20021;-73
2022/05/16 03:46:30;;;;;;;4.60;0.40;;;15.30;99.90;;;;;;5056294;28;20021;-73
2022/05/16 03:48:56;;;;;;;5.05;0.70;;;15.20;99.90;;;;;;5054700;28;20029;-73
2022/05/16 03:51:21;;;;;;;5.03;0.32;;;15.30;99.90;;;;;;5056309;28;20440;-74
2022/05/16 03:53:47;;;;;;;5.85;0.50;;;15.30;99.90;;;;;;5056066;28;20025;-74
2022/05/16 03:56:24;;;;;;;4.15;0.90;;;15.20;99.90;;;;;;5054718;28;20147;-74
2022/05/16 03:58:50;;;;;;;3.22;0.80;;;15.20;99.90;;;;;;5055017;28;20437;-73
2022/05/16 04:01:16;;;;;;;7.45;0.80;;;15.20;99.90;;;;;;5055571;28;20076;-73
2022/05/16 04:03:42;;;;;;;4.95;0.40;;;15.20;99.90;;;;;;5054162;28;20013;-72
2022/05/16 04:06:08;;;;;;;4.18;1.08;;;15.20;99.90;;;;;;5055444;28;20115;-73
2022/05/16 04:08:34;;;;;;;4.07;0.55;;;15.10;99.90;;;;;;5054201;28;20031;-73
2022/05/16 04:11:01;;;;;;;4.93;1.05;;;15.10;99.90;;;;;;5054454;28;20423;-73
2022/05/16 04:13:27;;;;;;;5.10;0.63;;;15.10;99.90;;;;;;5054103;28;20506;-73
2022/05/16 04:15:53;;;;;;;3.38;0.38;;;15.20;99.90;;;;;;5055353;28;20028;-73
2022/05/16 04:18:19;;;;;;;6.20;1.05;;;15.10;99.90;;;;;;5054414;28;20025;-73
2022/05/16 04:20:45;;;;;;;9.32;1.50;;;15.20;99.90;;;;;;5055491;28;20419;-73
2022/05/16 04:23:11;;;;;;;4.53;0.52;;;15.10;99.90;;;;;;5055012;28;20025;-72
2022/05/16 04:25:37;;;;;;;10.35;1.52;;;15.20;99.90;;;;;;5055265;28;20025;-73
2022/05/16 04:28:05;;;;;;;4.20;0.35;;;15.20;99.90;;;;;;5055133;28;20029;-73
2022/05/16 04:30:31;;;;;;;5.00;0.90;;;15.40;99.90;;;;;;5055071;28;20094;-73
2022/05/16 04:32:56;;;;;;;6.22;1.02;;;15.40;99.90;;;;;;5053795;28;20415;-73
2022/05/16 04:35:22;;;;;;;3.20;0.73;;;15.60;99.90;;;;;;5054883;28;20033;-73
2022/05/16 04:37:48;;;;;;;5.10;0.75;;;15.60;99.90;;;;;;5054889;28;20381;-73
2022/05/16 04:40:14;;;;;;;3.60;0.70;;;15.70;99.90;;;;;;5054882;28;20100;-74
2022/05/16 04:42:40;;;;;;;7.95;0.95;;;15.90;99.90;;;;;;5053566;28;20041;-74
2022/05/16 04:45:10;;;;;;;1.70;0.32;;;16.00;99.90;;;;;;5054888;28;20048;-74
2022/05/16 04:47:36;;;;;;;3.55;0.47;;;16.10;99.90;;;;;;5054727;28;20029;-74
2022/05/16 04:50:02;;;;;;;1.08;0.25;;;16.20;99.90;;;;;;5055062;28;20100;-74
2022/05/16 04:52:28;;;;;;;4.90;0.40;;;16.20;99.90;;;;;;5054567;28;20507;-73
2022/05/16 04:54:54;;;;;;;6.72;1.33;;;16.30;99.90;;;;;;5054701;28;20017;-73
2022/05/16 04:57:20;;;;;;;3.03;0.75;;;16.30;99.90;;;;;;5054525;28;20025;-73
2022/05/16 04:59:49;;;;;;;6.50;1.02;;;16.50;99.90;;;;;;5053171;28;20115;-73
2022/05/16 05:02:15;;;;;;;3.38;0.60;;;16.50;99.90;;;;;;5052987;28;20025;-73
2022/05/16 05:04:41;;;;;;;3.95;0.98;;;16.60;99.90;;;;;;5054286;28;20104;-73
2022/05/16 05:07:07;;;;;;;5.55;0.80;;;16.70;99.90;;;;;;5054440;28;20057;-73
2022/05/16 05:14:31;;;;;;;4.22;0.98;;;16.80;99.90;;;;;;5053949;28;20049;-73
2022/05/16 05:15:02;;;;;;;3.47;0.93;;;17.10;99.90;;;;;;5054828;28;20518;-74
2022/05/16 05:17:28;;;;;;;8.13;1.15;;;17.30;99.90;;;;;;5054634;28;20017;-74
2022/05/16 05:19:53;;;;;;;5.90;0.68;;;17.50;99.90;;;;;;5052853;28;20460;-74
2022/05/16 05:22:19;;;;;;;5.25;0.93;;;17.60;99.90;;;;;;5054251;28;20104;-75
2022/05/16 05:24:45;;;;;;;3.72;1.10;;;17.80;99.90;;;;;;5054087;28;20017;-75
2022/05/16 05:27:11;;;;;;;3.78;0.60;;;17.90;99.90;;;;;;5053966;28;20123;-74
2022/05/16 05:29:36;;;;;;;4.13;0.40;;;18.10;99.90;;;;;;5053979;28;20025;-75
2022/05/16 05:32:03;;;;;;;1.92;0.52;;;18.20;99.90;;;;;;5054542;28;20025;-75
2022/05/16 05:34:29;;;;;;;1.77;0.43;;;18.40;99.90;;;;;;5053825;28;20484;-78
2022/05/16 05:36:54;;;;;;;4.38;0.20;;;18.70;99.90;;;;;;5055695;28;20071;-74
2022/05/16 05:39:20;;;;;;;4.38;0.60;;;19.00;99.90;;;;;;5054535;28;20400;-76
2022/05/16 05:41:46;;;;;;;3.78;0.60;;;19.30;98.80;;;;;;5052884;28;20017;-75
2022/05/16 05:44:13;;;;;;;12.00;0.55;;;19.50;97.10;;;;;;5054367;28;20017;-75
2022/05/16 05:46:41;;;;;;;3.92;0.38;;;19.70;96.40;;;;;;5054562;28;20025;-74
2022/05/16 05:49:07;;;;;;;2.50;0.17;;;19.90;95.00;;;;;;5054372;28;20029;-75
2022/05/16 05:51:33;;;;;;;2.72;0.68;;;20.10;93.80;;;;;;5054777;28;20545;-75
2022/05/16 05:53:59;;;;;;;6.80;0.43;;;20.30;92.60;;;;;;5054662;28;20033;-74
2022/05/16 05:56:24;;;;;;;3.05;0.30;;;20.40;92.50;;;;;;5053891;28;20032;-73
2022/05/16 05:58:50;;;;;;;6.25;0.80;;;20.60;91.50;;;;;;5054440;28;20025;-73
2022/05/16 06:01:16;;;;;;;3.33;0.70;;;20.70;90.40;;;;;;5052845;28;20029;-73
2022/05/16 06:03:41;;;;;;;4.80;0.90;;;20.80;90.20;;;;;;5052419;28;20013;-73
2022/05/16 06:06:07;;;;;;;4.20;0.80;;;21.00;88.90;;;;;;5053774;28;20390;-74
2022/05/16 06:08:33;;;;;;;3.63;0.40;;;21.20;87.00;;;;;;5053490;28;20029;-74
2022/05/16 06:11:00;;;;;;;6.22;0.52;;;21.30;85.70;;;;;;5053851;28;20062;-74
2022/05/16 06:13:27;;;;;;;4.18;0.95;;;21.20;84.60;;;;;;5054195;28;20448;-75
2022/05/16 06:15:52;;;;;;;6.10;0.50;;;21.20;84.80;;;;;;5053701;28;20476;-74
2022/05/16 06:18:18;;;;;;;5.32;0.93;;;21.00;86.40;;;;;;5053959;28;20020;-74
2022/05/16 06:20:44;;;;;;;3.88;0.65;;;20.90;87.20;;;;;;5053061;28;20044;-74
2022/05/16 06:23:09;;;;;;;4.53;1.08;;;20.80;88.40;;;;;;5053283;28;20024;-74
2022/05/16 06:25:39;;;;;;;6.55;1.33;;;20.70;88.40;;;;;;5052141;28;20368;-74
2022/05/16 06:28:17;;;;;;;1.67;0.52;;;20.50;90.10;;;;;;5076443;22;20045;-74
2022/05/16 06:30:44;;;;;;;;;;;20.40;90.80;;;;;;5035907;28;20116;-76
2022/05/16 06:33:11;;;;;;;6.40;1.10;;;20.40;90.90;;;;;;5035866;28;20000;-75
2022/05/16 06:35:38;;;;;;;6.40;0.50;;;20.40;91.20;;;;;;5034641;28;20133;-74
2022/05/16 06:38:16;;;;;;;6.40;0.95;;;20.30;91.40;;;;;;5035295;28;20021;-76
2022/05/16 06:40:46;;;;;;;3.58;0.60;;;20.30;91.80;;;;;;5038206;28;20063;-77
2022/05/16 06:43:12;;;;;;;1.20;0.70;;;20.20;91.80;;;;;;5034128;28;20018;-78
2022/05/16 06:45:38;;;;;;;5.85;1.10;;;20.10;92.30;;;;;;5034189;28;20037;-78
2022/05/16 06:48:08;;;;;;;5.43;1.40;;;20.10;93.00;;;;;;5034388;28;20025;-78
2022/05/16 06:50:35;;;;;;;4.30;0.85;;;19.90;93.00;;;;;;5036117;28;20036;-78
2022/05/16 06:53:03;;;;;;;7.60;1.63;;;19.90;93.60;;;;;;5033412;28;20021;-77
2022/05/16 06:55:29;;;;;;;5.65;1.67;;;19.80;94.00;;;;;;5038348;28;20075;-79
2022/05/16 06:57:55;;;;;;;4.00;0.88;;;19.70;94.80;;;;;;5036955;28;20480;-78
2022/05/16 07:00:20;;;;;;;5.95;1.23;;;19.70;95.30;;;;;;5037650;28;20071;-78
2022/05/16 07:02:46;;;;;;;3.70;1.33;;;19.70;95.80;;;;;;5033632;28;20032;-77
2022/05/16 07:05:13;;;;;;;3.70;0.82;;;19.70;96.40;;;;;;5033643;28;20014;-78
2022/05/16 07:07:39;;;;;;;4.35;1.52;;;19.70;96.70;;;;;;5035781;28;20076;-78
2022/05/16 07:10:06;;;;;;;4.15;1.60;;;19.70;96.60;;;;;;5034699;28;20009;-78
2022/05/16 07:12:32;;;;;;;5.55;1.33;;;19.70;96.50;;;;;;5035912;28;20506;-78
2022/05/16 07:14:58;;;;;;;5.78;1.27;;;19.60;97.10;;;;;;5035508;28;20029;-78
2022/05/16 07:17:23;;;;;;;9.27;1.75;;;19.70;96.90;;;;;;5036691;28;20025;-77
2022/05/16 07:19:51;;;;;;;8.93;1.40;;;19.60;97.20;;;;;;5037659;28;20021;-79
2022/05/16 07:22:24;;;;;;;6.72;1.77;;;19.70;97.40;;;;;;5037390;28;20101;-78
2022/05/16 07:24:52;;;;;;;4.55;1.08;;;19.70;98.00;;;;;;5036890;28;20380;-78
2022/05/16 07:30:05;;;;;;;5.97;1.35;;;19.80;97.60;;;;;;5035157;28;20091;-77
2022/05/16 07:32:50;;;;;;;5.95;1.30;;;19.90;98.10;;;;;;5034409;28;20025;-77
2022/05/16 07:35:19;;;;;;;4.18;1.80;;;20.00;97.80;;;;;;5037307;28;20088;-77
2022/05/16 07:37:45;;;;;;;6.72;1.65;;;20.10;97.30;;;;;;5037762;28;20090;-77
2022/05/16 07:40:12;;;;;;;5.28;1.40;;;20.10;97.50;;;;;;5039404;28;20100;-78
2022/05/16 07:42:38;;;;;;;5.47;1.58;;;20.20;97.60;;;;;;5038558;28;20437;-78
2022/05/16 07:45:06;;;;;;;5.32;1.75;;;20.30;97.70;;;;;;5040183;28;20101;-77
2022/05/16 07:47:32;;;;;;;4.13;1.17;;;20.40;97.70;;;;;;5037682;28;20025;-77
2022/05/16 07:49:59;;;;;;;8.82;1.88;;;20.40;97.30;;;;;;5039706;28;20667;-77
2022/05/16 07:52:25;;;;;;;4.55;1.60;;;20.40;97.40;;;;;;5039006;28;20133;-78
2022/05/16 07:54:52;;;;;;;7.70;0.90;;;20.60;97.80;;;;;;5040611;28;20021;-78
2022/05/16 07:57:18;;;;;;;5.10;1.95;;;20.90;97.40;;;;;;5040477;28;20064;-77
2022/05/16 07:59:45;;;;;;;2.95;1.13;;;21.00;96.70;;;;;;5038854;28;19997;-77
2022/05/16 08:02:12;;;;;;;3.38;1.23;;;21.10;96.10;;;;;;5039247;28;20077;-78
2022/05/16 08:04:38;;;;;;;4.13;1.02;;;21.20;96.40;;;;;;5037156;28;20021;-77
2022/05/16 08:07:04;;;;;;;8.57;1.83;;;21.30;96.50;;;;;;5037004;28;20369;-77
2022/05/16 08:12:30;;;;;;;6.43;1.13;;;21.70;95.70;;;;;;5038694;28;20090;-77
2022/05/16 08:14:56;;;;;;;6.57;1.88;;;21.80;95.30;;;;;;5038210;28;20022;-77
2022/05/16 08:17:23;;;;;;;6.00;1.02;;;21.90;94.90;;;;;;5038980;28;20040;-78
2022/05/16 08:19:49;;;;;;;2.63;1.20;;;22.10;95.30;;;;;;5037561;28;20391;-77
2022/05/16 08:22:15;;;;;;;4.70;1.40;;;22.20;93.80;;;;;;5038699;28;20021;-77
2022/05/16 08:24:41;;;;;;;8.00;2.03;;;22.40;93.20;;;;;;5038536;28;20092;-77
2022/05/16 08:27:07;;;;;;;6.43;2.13;;;22.70;91.20;;;;;;5037852;28;20144;-78
2022/05/16 08:29:33;;;;;;;5.90;1.27;;;22.80;90.90;;;;;;5037786;28;20037;-77
2022/05/16 08:31:59;;;;;;;7.95;2.28;;;22.90;91.20;;;;;;5036245;28;20561;-76
2022/05/16 08:34:25;;;;;;;3.95;1.88;;;23.00;89.80;;;;;;5036775;28;20029;-76
2022/05/16 08:39:55;;;;;;;5.18;2.28;;;22.90;89.50;;;;;;5038779;28;20048;-78
2022/05/16 08:42:47;;;;;;;28.90;8.18;;;22.80;89.70;;;;;;5037682;28;20100;-78
2022/05/16 08:45:35;;;;;;;8.57;3.42;;;22.70;90.40;;;;;;5036200;28;20030;-77
2022/05/16 08:48:08;;;;;;;6.38;2.35;;;22.70;90.70;;;;;;5037864;28;20055;-77
2022/05/16 08:50:47;;;;;;;3.05;1.75;;;22.60;91.40;;;;;;5038945;28;20120;-77
2022/05/16 08:53:23;;;;;;;5.45;2.40;;;22.60;91.60;;;;;;5037087;28;20064;-77
2022/05/16 08:55:52;;;;;;;8.57;2.47;;;22.60;91.70;;;;;;5035336;28;20022;-77
2022/05/16 08:58:33;;;;;;;6.28;2.40;;;22.60;91.00;;;;;;5037477;28;20037;-78
2022/05/16 09:01:15;;;;;;;5.32;1.80;;;22.60;90.90;;;;;;5035872;28;20021;-77
2022/05/16 09:03:46;;;;;;;6.07;1.88;;;22.60;91.10;;;;;;5036561;28;20025;-77
2022/05/16 09:06:21;;;;;;;7.07;1.65;;;22.80;91.90;;;;;;5038304;28;20052;-78
2022/05/16 09:09:19;;;;;;;4.90;1.98;;;23.10;90.90;;;;;;5038247;28;20069;-77
2022/05/16 09:12:02;;;;;;;6.88;2.10;;;23.40;88.80;;;;;;5036060;28;20026;-75
2022/05/16 09:14:28;;;;;;;6.15;2.15;;;23.60;90.00;;;;;;5035161;28;20030;-75
2022/05/16 09:17:09;;;;;;;6.10;2.42;;;23.70;87.30;;;;;;5036906;28;20115;-77
2022/05/16 09:19:55;;;;;;;3.97;1.90;;;23.70;87.50;;;;;;5035152;28;20494;-75
2022/05/16 09:22:31;;;;;;;6.50;2.17;;;23.90;88.20;;;;;;5037393;28;20076;-75
2022/05/16 09:25:22;;;;;;;5.32;2.97;;;24.00;87.90;;;;;;5035346;28;20100;-76
2022/05/16 09:30:41;;;;;;;6.95;1.98;;;24.20;84.80;;;;;;5037072;28;20495;-77
2022/05/16 09:33:10;;;;;;;;;;;24.30;84.80;;;;;;5036258;28;20108;-75
2022/05/16 09:35:38;;;;;;;;;;;24.40;84.30;;;;;;5036151;28;19905;-75
2022/05/16 09:38:05;;;;;;;5.57;2.47;;;24.50;82.00;;;;;;5035356;28;19909;-76
2022/05/16 09:40:37;;;;;;;4.07;2.30;;;24.60;82.40;;;;;;5036302;28;20025;-75
2022/05/16 09:43:14;;;;;;;6.22;1.92;;;24.70;82.70;;;;;;5036263;28;20021;-76
2022/05/16 09:45:45;;;;;;;3.65;1.65;;;24.90;81.00;;;;;;5036160;28;20029;-75
2022/05/16 09:48:23;;;;;;;2.85;1.63;;;25.10;81.50;;;;;;5034637;28;20499;-75
2022/05/16 09:51:04;;;;;;;4.65;1.70;;;25.30;77.60;;;;;;5036545;28;20484;-76
2022/05/16 09:53:39;;;;;;;9.48;2.67;;;25.50;77.20;;;;;;5032828;28;20036;-74
2022/05/16 09:56:11;;;;;;;6.38;2.28;;;25.60;76.30;;;;;;5032028;28;20022;-73
2022/05/16 09:58:50;;;;;;;6.30;2.88;;;25.70;75.70;;;;;;5033282;28;20439;-74
2022/05/16 10:01:38;;;;;;;4.10;1.75;;;25.90;77.10;;;;;;5033298;28;20024;-73
2022/05/16 10:04:24;;;;;;;7.45;2.00;;;26.00;75.70;;;;;;5031676;28;20025;-73
2022/05/16 10:07:02;;;;;;;6.45;2.00;;;26.10;74.80;;;;;;5033609;28;20060;-74
2022/05/16 10:09:33;;;;;;;;;;;26.30;76.00;;;;;;5034731;28;20028;-74
2022/05/16 10:11:59;;;;;;;5.82;2.03;;;26.50;74.40;;;;;;5033652;28;19955;-74
2022/05/16 10:14:25;;;;;;;3.85;1.80;;;26.80;74.10;;;;;;5033459;28;20461;-74
2022/05/16 10:16:53;;;;;;;4.80;1.98;;;27.00;72.50;;;;;;5033835;28;20025;-74
2022/05/16 10:19:24;;;;;;;4.68;1.98;;;27.10;71.40;;;;;;5033829;28;20367;-74
2022/05/16 10:21:54;;;;;;;3.00;2.20;;;27.00;69.40;;;;;;5033828;28;20057;-74
2022/05/16 10:24:21;;;;;;;3.28;1.70;;;27.00;70.40;;;;;;5033580;28;20032;-74
2022/05/16 10:26:51;;;;;;;3.17;1.63;;;27.20;70.30;;;;;;5034411;28;20022;-75
2022/05/16 10:29:25;;;;;;;6.88;2.75;;;27.40;69.20;;;;;;5033790;28;20399;-74
2022/05/16 10:34:47;;;;;;;4.97;1.20;;;27.50;70.10;;;;;;5033927;28;20419;-74
2022/05/16 10:37:14;;;;;;;3.83;1.20;;;27.50;70.20;;;;;;5033203;28;20025;-74
2022/05/16 10:39:45;;;;;;;5.18;1.67;;;27.50;69.90;;;;;;5032302;28;20021;-75
2022/05/16 10:42:24;;;;;;;3.17;1.13;;;27.40;70.70;;;;;;5033889;28;20025;-74
2022/05/16 10:45:19;;;;;;;3.65;1.30;;;27.30;73.20;;;;;;5033424;28;20020;-74
2022/05/16 10:48:01;;;;;;;2.08;1.25;;;27.00;71.90;;;;;;5031417;28;20455;-73
2022/05/16 10:50:42;;;;;;;7.43;1.25;;;26.50;74.80;;;;;;5032340;28;20017;-74
2022/05/16 10:53:19;;;;;;;5.53;0.70;;;26.10;77.80;;;;;;5033385;28;20037;-73
2022/05/16 10:56:06;;;;;;;4.07;0.20;;;25.60;83.30;;;;;;5033562;28;20056;-74
2022/05/16 10:58:40;;;;;;;1.02;0.05;;;25.20;83.80;;;;;;5034326;28;20025;-74
2022/05/16 11:01:21;;;;;;;9.23;0.73;;;24.60;87.00;;;;;;5034053;28;20033;-74
2022/05/16 11:04:04;;;;;;;5.05;0.30;;;24.20;91.40;;;;;;5032270;28;20361;-74
2022/05/16 11:06:55;;;;;;;5.00;0.85;;;23.70;97.10;;;;;;5033819;28;20484;-74
2022/05/16 11:09:48;;;;;;;4.50;0.93;;;23.20;99.90;;;;;;5030463;28;20120;-75
2022/05/16 11:12:29;;;;;;;3.88;0.60;;;22.70;99.90;;;;;;5037772;28;20037;-74
2022/05/16 11:15:05;;;;;;;6.20;1.48;;;22.30;99.90;;;;;;5038156;28;20507;-76
2022/05/16 11:17:41;;;;;;;3.58;1.00;;;22.00;99.90;;;;;;5037872;28;20048;-75
2022/05/16 11:20:20;;;;;;;5.03;0.85;;;21.80;99.90;;;;;;5036422;28;20025;-75
2022/05/16 11:23:02;;;;;;;3.00;0.73;;;21.70;99.90;;;;;;5036474;28;20025;-74
2022/05/16 11:25:51;;;;;;;1.10;0.43;;;21.60;99.90;;;;;;5039246;28;20022;-77
2022/05/16 11:28:36;;;;;;;5.35;0.40;;;21.40;99.90;;;;;;5038617;28;20032;-78
2022/05/16 11:31:19;;;;;;;2.80;0.32;;;21.10;99.90;;;;;;5038888;28;20374;-77
2022/05/16 11:33:47;;;;;;;3.10;0.68;;;20.90;99.90;;;;;;5038667;28;20105;-77
2022/05/16 11:36:47;;;;;;;3.10;0.90;;;20.90;99.90;;;;;;5036791;28;20029;-77
2022/05/16 11:39:32;;;;;;;3.75;0.60;;;21.00;99.90;;;;;;5037397;28;20026;-76
2022/05/16 11:42:05;;;;;;;5.47;0.77;;;21.10;99.90;;;;;;5037827;28;20021;-79
2022/05/16 11:44:44;;;;;;;4.47;1.08;;;21.20;99.90;;;;;;5037059;28;20021;-75
2022/05/16 11:47:40;;;;;;;4.97;1.10;;;21.20;99.90;;;;;;5035154;28;20025;-77
2022/05/16 11:50:46;;;;;;;4.07;1.20;;;21.10;99.90;;;;;;5036104;28;20040;-75
2022/05/16 11:53:36;;;;;;;3.60;1.00;;;21.20;99.90;;;;;;5036400;28;20160;-76
2022/05/16 12:01:35;;;;;;;3.65;2.08;;;21.30;99.90;;;;;;5037315;28;20109;-74
2022/05/16 12:04:20;;;;;;;4.93;2.17;;;21.40;99.90;;;;;;5034535;28;20543;-74
2022/05/16 12:06:49;;;;;;;5.32;1.85;;;21.50;99.90;;;;;;5035888;28;20036;-74
2022/05/16 12:09:17;;;;;;;2.88;1.92;;;20.30;99.90;;;;;;5033906;28;20048;-74
2022/05/16 12:11:57;;;;;;;7.80;2.67;;;21.80;99.90;;;;;;5035687;28;20434;-74
2022/05/16 12:14:53;;;;;;;8.55;3.75;;;21.90;99.90;;;;;;5035555;28;20041;-74
2022/05/16 12:17:27;;;;;;;10.07;4.82;;;21.90;99.90;;;;;;5035120;28;20034;-74
2022/05/16 12:19:53;;;;;;;10.75;5.57;;;21.90;99.90;;;;;;5034929;28;20587;-74
2022/05/16 12:22:44;;;;;;;14.70;7.10;;;21.50;99.90;;;;;;5035547;28;20021;-73
2022/05/16 12:25:32;;;;;;;13.30;7.38;;;21.30;99.90;;;;;;5035660;28;20030;-73
2022/05/16 12:28:13;;;;;;;12.18;6.97;;;21.10;99.90;;;;;;5035869;28;20025;-74
2022/05/16 12:30:43;;;;;;;13.38;6.88;;;21.00;99.90;;;;;;5035819;28;20396;-73
2022/05/16 12:33:42;;;;;;;11.45;5.32;;;20.80;99.90;;;;;;5035353;28;20030;-74
2022/05/16 12:36:23;;;;;;;9.65;4.57;;;20.90;99.90;;;;;;5035580;28;20083;-74
2022/05/16 12:39:23;;;;;;;11.45;4.13;;;20.80;99.90;;;;;;5035290;28;20026;-74
2022/05/16 12:42:26;;;;;;;7.75;2.72;;;20.70;99.90;;;;;;5035331;28;20091;-73
2022/05/16 12:44:52;;;;;;;7.00;3.75;;;20.60;99.90;;;;;;5034973;28;20057;-73
2022/05/16 12:47:52;;;;;;;7.97;4.35;;;20.50;99.90;;;;;;5034831;28;20492;-73
2022/05/16 12:50:42;;;;;;;5.47;3.60;;;20.50;99.90;;;;;;4981423;28;20042;-74
2022/05/16 12:53:34;;;;;;;10.85;3.40;;;20.70;99.90;;;;;;5035419;28;20017;-74
2022/05/16 12:56:12;;;;;;;10.93;3.63;;;20.80;99.90;;;;;;5034409;28;20018;-74
2022/05/16 12:58:56;;;;;;;11.27;2.50;;;21.60;99.90;;;;;;5033459;28;20018;-74
2022/05/16 13:01:29;;;;;;;7.68;2.67;;;22.10;99.90;;;;;;5035256;28;20381;-74
2022/05/16 13:04:10;;;;;;;14.82;3.58;;;22.10;99.90;;;;;;5034896;28;20488;-74
2022/05/16 13:06:46;;;;;;;11.05;3.83;;;21.80;99.90;;;;;;5034502;28;20030;-74
2022/05/16 13:09:45;;;;;;;14.98;3.90;;;21.90;99.90;;;;;;5034600;28;20029;-74
2022/05/16 13:12:49;;;;;;;8.02;4.07;;;21.50;99.90;;;;;;5034353;28;20499;-74
2022/05/16 13:15:27;;;;;;;9.70;3.55;;;21.20;99.90;;;;;;5034431;28;20100;-74
2022/05/16 13:17:58;;;;;;;10.48;3.72;;;21.50;99.90;;;;;;5034343;28;20026;-74
2022/05/16 13:20:36;;;;;;;12.82;4.85;;;21.60;99.90;;;;;;5034343;28;20017;-74
2022/05/16 13:23:03;;;;;;;16.48;5.43;;;21.60;99.90;;;;;;5034296;28;20029;-74
2022/05/16 13:25:30;;;;;;;10.82;4.93;;;21.50;99.90;;;;;;5034302;28;20048;-74
2022/05/16 13:30:44;;;;;;;20.37;6.63;;;22.00;99.90;;;;;;5034186;28;20043;-74
2022/05/16 13:33:34;;;;;;;10.45;3.95;;;22.20;99.90;;;;;;5034333;28;20818;-74
2022/05/16 13:36:20;;;;;;;8.63;3.88;;;22.10;99.90;;;;;;5034007;28;20022;-74
2022/05/16 13:38:53;;;;;;;8.48;3.30;;;22.00;99.90;;;;;;5034211;28;20021;-74
2022/05/16 13:41:28;;;;;;;8.25;3.50;;;22.10;99.90;;;;;;5034146;28;20519;-74
2022/05/16 13:43:54;;;;;;;7.00;3.03;;;22.50;99.90;;;;;;5033709;28;20045;-74